Time;durP1;ratioP1;P1;durP2;ratioP2;P2;SDS_P1;SDS_P2;PMS_P1;PMS_P2;Temp;Humidity;BMP_temperature;BMP_pressure;BME280_temperature;BME280_humidity;BME280_pressure;Samples;Min_cycle;Max_cycle;Signal;HPM_P1;HPM_P2
2021/10/28 00:14:25;;;;;;;21.20;15.38;;;;;;;8.94;74.21;99239.84;5135736;27;20033;-52
2021/10/28 00:16:51;;;;;;;25.55;15.30;;;;;;;8.98;74.28;99236.69;5135394;27;20072;-52
2021/10/28 00:19:18;;;;;;;19.15;15.13;;;;;;;8.97;73.96;99229.84;5135860;27;20385;-52
2021/10/28 00:21:44;;;;;;;18.88;16.10;;;;;;;8.80;73.86;99233.56;5135449;27;20033;-52
2021/10/28 00:24:12;;;;;;;19.92;16.70;;;;;;;8.57;74.81;99229.16;5135790;27;20381;-51
2021/10/28 00:26:41;;;;;;;20.75;16.98;;;;;;;8.35;75.41;99238.56;5135295;27;20055;-52
2021/10/28 00:29:11;;;;;;;21.65;17.23;;;;;;;8.22;75.83;99237.50;5116920;27;20037;-52
2021/10/28 00:31:38;;;;;;;20.52;16.50;;;;;;;8.11;76.47;99239.50;5135681;27;20019;-52
2021/10/28 00:34:07;;;;;;;21.38;16.75;;;;;;;8.07;76.75;99232.16;5135128;27;20019;-52
2021/10/28 00:36:34;;;;;;;20.00;16.63;;;;;;;8.04;76.74;99238.53;5135243;27;20072;-51
2021/10/28 00:39:00;;;;;;;19.70;16.33;;;;;;;8.07;76.64;99232.97;5116815;27;20038;-51
2021/10/28 00:41:26;;;;;;;20.20;16.88;;;;;;;8.26;77.27;99236.16;5135395;27;20042;-52
2021/10/28 00:43:55;;;;;;;20.52;13.82;;;;;;;8.33;75.85;99237.09;5099743;27;20484;-52
2021/10/28 00:46:23;;;;;;;18.17;15.95;;;;;;;8.35;75.97;99235.09;5116560;27;20083;-52
2021/10/28 00:48:49;;;;;;;18.30;15.57;;;;;;;8.43;75.83;99226.44;5134937;27;20027;-52
2021/10/28 00:51:19;;;;;;;19.58;15.27;;;;;;;8.48;75.65;99219.72;5135030;27;20544;-52
2021/10/28 00:53:44;;;;;;;22.70;18.60;;;;;;;8.57;75.29;99229.16;5116445;27;20031;-51
2021/10/28 00:56:11;;;;;;;23.55;17.98;;;;;;;8.58;75.18;99230.75;5134823;27;20068;-52
2021/10/28 00:58:37;;;;;;;20.73;17.45;;;;;;;8.60;75.38;99234.00;5134869;27;20396;-52
2021/10/28 01:01:04;;;;;;;20.25;15.27;;;;;;;8.67;75.58;99231.53;5116315;27;20023;-52
2021/10/28 01:03:33;;;;;;;20.92;14.07;;;;;;;8.73;75.09;99230.84;5134454;27;20122;-52
2021/10/28 01:06:00;;;;;;;20.02;15.15;;;;;;;8.66;75.18;99224.66;5134733;27;20422;-52
2021/10/28 01:08:26;;;;;;;18.58;15.35;;;;;;;8.52;75.02;99230.66;5134659;27;20043;-51
2021/10/28 01:10:53;;;;;;;35.50;16.58;;;;;;;8.54;75.56;99231.28;5134588;27;20027;-51
2021/10/28 01:13:21;;;;;;;18.10;14.55;;;;;;;8.63;74.86;99229.41;5116299;27;20026;-52
2021/10/28 01:15:53;;;;;;;19.45;13.40;;;;;;;8.55;75.21;99231.13;5116004;27;20023;-52
2021/10/28 01:18:19;;;;;;;21.85;15.82;;;;;;;8.47;75.72;99231.16;5134594;27;20023;-52
2021/10/28 01:20:49;;;;;;;16.88;14.27;;;;;;;8.56;75.51;99229.31;5134398;27;20110;-51
2021/10/28 01:23:21;;;;;;;18.50;13.68;;;;;;;8.64;75.31;99224.03;5133107;27;20042;-52
2021/10/28 01:25:55;;;;;;;18.15;14.07;;;;;;;8.58;75.39;99219.47;5134387;27;20069;-52
2021/10/28 01:28:23;;;;;;;25.10;18.25;;;;;;;8.54;75.61;99224.25;5133692;27;20536;-51
2021/10/28 01:30:53;;;;;;;28.52;19.52;;;;;;;8.62;75.61;99222.56;5134167;27;20385;-52
2021/10/28 01:33:20;;;;;;;25.35;18.38;;;;;;;8.67;76.14;99215.84;5134028;27;20023;-51
2021/10/28 01:35:46;;;;;;;22.13;17.77;;;;;;;8.70;76.85;99214.66;5134028;27;20019;-51
2021/10/28 01:38:14;;;;;;;21.00;16.98;;;;;;;8.75;76.71;99215.78;5098600;27;20099;-52
2021/10/28 01:40:42;;;;;;;23.40;18.58;;;;;;;8.69;76.47;99211.25;5134047;27;20051;-52
2021/10/28 01:43:08;;;;;;;22.70;16.42;;;;;;;8.71;76.20;99203.19;5133909;27;20015;-52
2021/10/28 01:45:34;;;;;;;49.50;41.38;;;;;;;8.65;75.78;99206.50;5132543;27;20202;-52
2021/10/28 01:48:01;;;;;;;66.82;58.42;;;;;;;8.59;76.30;99200.16;5133862;27;20153;-51
2021/10/28 01:50:31;;;;;;;43.30;38.67;;;;;;;8.59;76.43;99205.41;5133853;27;20601;-52
2021/10/28 01:52:58;;;;;;;27.98;22.83;;;;;;;8.68;76.20;99200.94;5133670;27;20029;-52
2021/10/28 01:55:24;;;;;;;25.02;16.35;;;;;;;8.67;75.73;99197.53;5115387;27;20031;-52
2021/10/28 01:57:50;;;;;;;18.60;15.32;;;;;;;8.57;75.00;99195.13;5133724;27;20030;-51
2021/10/28 02:00:19;;;;;;;26.80;17.98;;;;;;;8.41;75.61;99190.03;5115127;27;20105;-52
2021/10/28 02:02:46;;;;;;;21.17;15.25;;;;;;;8.43;75.83;99185.44;5133352;27;20039;-51
2021/10/28 02:05:16;;;;;;;25.38;18.60;;;;;;;8.44;76.02;99183.63;5133581;27;20103;-52
2021/10/28 02:07:43;;;;;;;24.25;17.52;;;;;;;8.40;75.58;99183.91;5133638;27;20106;-52
2021/10/28 02:10:10;;;;;;;23.33;14.75;;;;;;;8.37;76.32;99181.66;5133808;27;20016;-52
2021/10/28 02:12:38;;;;;;;20.30;14.65;;;;;;;8.39;76.80;99182.31;5133496;27;20016;-52
2021/10/28 02:15:06;;;;;;;21.17;15.68;;;;;;;8.44;76.40;99181.81;5133484;27;20097;-51
2021/10/28 02:17:33;;;;;;;20.25;16.00;;;;;;;8.46;76.30;99177.22;5133362;27;20031;-51
2021/10/28 02:19:58;;;;;;;17.70;12.98;;;;;;;8.50;76.37;99177.69;5133248;27;20020;-51
2021/10/28 02:22:24;;;;;;;21.67;16.95;;;;;;;8.56;75.71;99174.38;5133511;27;20056;-52
2021/10/28 02:24:50;;;;;;;17.52;13.63;;;;;;;8.63;76.20;99159.59;5133248;27;20511;-51
2021/10/28 02:27:16;;;;;;;19.33;14.40;;;;;;;8.65;75.44;99162.84;5133198;27;20019;-52
2021/10/28 02:29:42;;;;;;;15.93;11.45;;;;;;;8.69;74.99;99164.13;5133159;27;20095;-51
2021/10/28 02:32:09;;;;;;;17.77;14.07;;;;;;;8.68;75.63;99157.25;5133081;27;20024;-51
2021/10/28 02:34:36;;;;;;;17.65;12.85;;;;;;;8.68;75.53;99153.84;5132908;27;20015;-51
2021/10/28 02:37:02;;;;;;;21.40;12.60;;;;;;;8.64;75.83;99148.13;5132954;27;20427;-51
2021/10/28 02:39:28;;;;;;;14.65;12.98;;;;;;;8.61;75.62;99151.09;5114171;27;20019;-52
2021/10/28 02:41:54;;;;;;;21.60;13.43;;;;;;;8.64;75.48;99144.72;5132420;27;20034;-51
2021/10/28 02:44:20;;;;;;;19.70;14.82;;;;;;;8.64;74.87;99149.94;5132967;27;20023;-52
2021/10/28 02:46:45;;;;;;;18.98;14.25;;;;;;;8.58;75.48;99149.66;5132833;27;20396;-51
2021/10/28 02:49:14;;;;;;;16.10;13.57;;;;;;;8.57;75.38;99144.59;5114464;27;20388;-51
2021/10/28 02:51:40;;;;;;;20.70;16.27;;;;;;;8.62;75.64;99146.69;5132850;27;20029;-51
2021/10/28 02:54:07;;;;;;;21.95;16.20;;;;;;;8.60;76.03;99139.03;5114247;28;20093;-52
2021/10/28 02:56:33;;;;;;;18.13;14.05;;;;;;;8.68;75.88;99140.75;5114316;28;20034;-52
2021/10/28 02:58:59;;;;;;;17.88;12.80;;;;;;;8.72;75.55;99134.19;5114373;28;20023;-52
2021/10/28 03:01:24;;;;;;;15.77;11.80;;;;;;;8.75;75.15;99136.44;5114414;28;20050;-52
2021/10/28 03:03:50;;;;;;;19.35;14.85;;;;;;;8.82;74.44;99137.34;5114462;28;20400;-52
2021/10/28 03:06:16;;;;;;;21.77;12.50;;;;;;;8.83;74.74;99128.50;5132597;28;20100;-52
2021/10/28 03:08:42;;;;;;;15.52;13.52;;;;;;;8.82;74.90;99126.88;5132710;28;20027;-52
2021/10/28 03:11:08;;;;;;;18.38;13.52;;;;;;;8.76;75.08;99132.84;5132597;28;20393;-52
2021/10/28 03:13:35;;;;;;;20.90;11.50;;;;;;;8.75;74.63;99128.59;5132758;28;20023;-52
2021/10/28 03:16:13;;;;;;;18.42;13.10;;;;;;;8.76;75.01;99130.22;5132549;28;20031;-52
2021/10/28 03:27:05;;;;;;;17.95;11.63;;;;;;;9.04;74.90;99113.94;5086825;28;20488;-52
2021/10/28 03:29:30;;;;;;;15.07;11.93;;;;;;;9.00;74.08;99118.69;5132374;28;20392;-53
2021/10/28 03:31:56;;;;;;;17.23;11.27;;;;;;;8.93;74.38;99113.38;5113966;28;20023;-51
2021/10/28 03:34:22;;;;;;;17.92;12.82;;;;;;;8.87;74.15;99113.25;5132346;28;20027;-52
2021/10/28 03:40:07;;;;;;;20.30;12.38;;;;;;;9.11;74.04;99113.00;5132409;28;20035;-52
2021/10/28 03:47:49;;;;;;;15.05;11.52;;;;;;;9.14;73.64;99114.47;5132607;28;20123;-52
2021/10/28 04:01:20;;;;;;;16.38;11.02;;;;;;;9.46;72.87;99115.09;5101117;27;20598;-51
2021/10/28 04:06:47;;;;;;;15.43;11.73;;;;;;;9.52;72.36;99117.78;5136186;27;20034;-52
2021/10/28 04:30:13;;;;;;;13.13;10.20;;;;;;;9.48;71.41;99110.50;5135803;27;20027;-52
2021/10/28 04:32:39;;;;;;;16.90;12.88;;;;;;;9.40;71.24;99109.56;5135382;27;20470;-52
2021/10/28 04:35:05;;;;;;;19.75;13.40;;;;;;;9.27;71.27;99114.63;5116771;27;20115;-52
2021/10/28 04:37:31;;;;;;;18.77;11.23;;;;;;;9.16;71.59;99115.09;5135268;27;20019;-52
2021/10/28 04:39:56;;;;;;;16.25;11.80;;;;;;;9.16;72.07;99121.16;5135506;27;20510;-52
2021/10/28 04:42:22;;;;;;;18.40;12.23;;;;;;;9.10;72.06;99121.88;5135075;27;20052;-52
2021/10/28 04:44:48;;;;;;;12.57;9.45;;;;;;;9.06;72.01;99114.56;5116661;27;20042;-52
2021/10/28 04:47:14;;;;;;;18.20;9.57;;;;;;;8.99;71.94;99117.91;5135107;27;20458;-52
2021/10/28 04:49:39;;;;;;;14.90;10.73;;;;;;;9.00;72.32;99118.69;5135055;27;20508;-52
2021/10/28 04:52:06;;;;;;;12.60;10.45;;;;;;;9.08;72.41;99116.00;5116498;27;20023;-52
2021/10/28 04:54:32;;;;;;;16.27;10.40;;;;;;;9.22;72.41;99113.56;5116378;27;20087;-52
2021/10/28 04:56:58;;;;;;;13.60;9.30;;;;;;;9.39;71.81;99109.75;5134950;27;20029;-52
2021/10/28 04:59:24;;;;;;;15.70;9.70;;;;;;;9.52;71.45;99114.38;5134869;27;20061;-52
2021/10/28 05:01:50;;;;;;;14.68;9.35;;;;;;;9.38;70.73;99110.75;5134604;27;20074;-52
2021/10/28 05:04:18;;;;;;;16.55;10.23;;;;;;;9.08;70.87;99107.34;5133904;27;20034;-52
2021/10/28 05:06:44;;;;;;;13.45;10.90;;;;;;;8.82;71.65;99108.56;5134722;27;20191;-52
2021/10/28 05:09:11;;;;;;;14.88;10.80;;;;;;;8.71;72.37;99109.00;5134696;27;20038;-52
2021/10/28 05:11:37;;;;;;;13.38;10.98;;;;;;;8.68;73.45;99109.38;5134686;27;20023;-52
2021/10/28 05:14:03;;;;;;;15.82;11.10;;;;;;;8.71;73.00;99114.22;5116117;27;20211;-51
2021/10/28 05:16:29;;;;;;;15.68;10.15;;;;;;;8.86;73.34;99114.28;5134490;27;20020;-52
2021/10/28 05:18:55;;;;;;;14.13;10.43;;;;;;;8.97;72.65;99111.19;5134521;27;20041;-52
2021/10/28 05:21:21;;;;;;;16.13;10.70;;;;;;;8.95;72.43;99107.94;5134420;27;20023;-51
2021/10/28 05:23:47;;;;;;;14.25;10.07;;;;;;;8.85;73.03;99105.59;5098968;27;20564;-52
2021/10/28 05:26:13;;;;;;;17.30;12.32;;;;;;;8.70;73.02;99102.94;5134287;27;20015;-52
2021/10/28 05:28:38;;;;;;;14.90;10.10;;;;;;;8.61;73.44;99098.78;5115829;27;20061;-52
2021/10/28 05:31:04;;;;;;;14.80;10.75;;;;;;;8.63;74.10;99102.03;5134235;27;20035;-51
2021/10/28 05:33:30;;;;;;;13.48;11.75;;;;;;;8.69;74.47;99101.34;5134309;27;20050;-52
2021/10/28 05:35:56;;;;;;;14.75;10.77;;;;;;;8.73;74.56;99100.00;5134113;27;20051;-52
2021/10/28 05:38:22;;;;;;;17.38;11.18;;;;;;;8.87;73.74;99106.22;5134120;27;20027;-52
2021/10/28 05:40:48;;;;;;;17.40;10.48;;;;;;;8.90;73.40;99095.41;5134045;27;20026;-52
2021/10/28 05:43:13;;;;;;;16.30;11.02;;;;;;;8.90;73.38;99091.97;5133996;27;20054;-51
2021/10/28 05:45:39;;;;;;;14.55;11.15;;;;;;;8.91;73.89;99094.41;5133850;27;20114;-52
2021/10/28 05:48:06;;;;;;;28.25;13.20;;;;;;;9.04;73.35;99092.97;5133860;27;20029;-52
2021/10/28 05:50:32;;;;;;;14.73;10.63;;;;;;;9.14;73.05;99091.72;5133715;27;20039;-52
2021/10/28 05:53:00;;;;;;;22.95;19.02;;;;;;;9.25;72.56;99095.66;5133788;27;20023;-52
2021/10/28 05:55:26;;;;;;;15.02;12.00;;;;;;;9.29;72.34;99083.03;5133592;27;20038;-52
2021/10/28 05:57:53;;;;;;;14.95;10.45;;;;;;;9.18;72.08;99081.69;5133710;27;20487;-51
2021/10/28 06:00:21;;;;;;;13.15;10.98;;;;;;;9.09;72.19;99085.38;5133630;27;20033;-51
2021/10/28 06:02:47;;;;;;;14.60;10.07;;;;;;;8.98;72.08;99086.66;5132877;27;20100;-52
2021/10/28 06:05:13;;;;;;;16.38;10.77;;;;;;;8.86;72.52;99083.66;5115477;27;20039;-51
2021/10/28 06:07:40;;;;;;;14.18;10.18;;;;;;;8.85;73.29;99083.84;5133530;27;20452;-52
2021/10/28 06:10:07;;;;;;;15.32;10.90;;;;;;;8.84;73.21;99082.22;5133490;27;20520;-51
2021/10/28 06:12:38;;;;;;;15.80;11.63;;;;;;;8.79;72.82;99077.50;5133389;27;20019;-52
2021/10/28 06:15:06;;;;;;;17.92;11.13;;;;;;;8.75;73.55;99091.94;5115611;27;20027;-52
2021/10/28 06:17:34;;;;;;;17.67;10.30;;;;;;;8.66;73.48;99091.22;5098202;27;20035;-52
2021/10/28 06:20:01;;;;;;;13.57;10.30;;;;;;;8.67;73.65;99089.41;5133479;27;20034;-52
2021/10/28 06:22:28;;;;;;;15.32;9.90;;;;;;;8.75;73.49;99092.78;5133254;27;20389;-52
2021/10/28 06:24:56;;;;;;;15.50;10.88;;;;;;;8.90;73.10;99097.22;5133476;27;20077;-51
2021/10/28 06:27:22;;;;;;;14.55;10.68;;;;;;;9.02;73.17;99100.22;5133117;27;20407;-52
2021/10/28 06:29:48;;;;;;;15.35;10.55;;;;;;;9.21;72.98;99104.88;5131842;27;20072;-52
2021/10/28 06:32:14;;;;;;;19.45;9.68;;;;;;;9.42;72.30;99101.53;5133153;27;20023;-52
2021/10/28 06:34:43;;;;;;;14.38;9.60;;;;;;;9.61;71.32;99100.16;5133012;27;20051;-52
2021/10/28 06:37:10;;;;;;;14.50;9.80;;;;;;;9.69;71.15;99102.66;5132947;27;20507;-52
2021/10/28 06:39:37;;;;;;;11.52;9.27;;;;;;;9.64;70.45;99109.44;5132962;27;20065;-51
2021/10/28 06:42:03;;;;;;;19.13;11.02;;;;;;;9.58;70.84;99108.41;5133183;27;20095;-53
2021/10/28 06:44:30;;;;;;;17.27;12.30;;;;;;;9.61;70.43;99105.41;5132913;27;20041;-52
2021/10/28 06:46:56;;;;;;;28.88;11.07;;;;;;;9.63;70.43;99103.41;5114347;27;20027;-52
2021/10/28 06:49:23;;;;;;;25.67;10.80;;;;;;;9.63;70.01;99102.59;5132923;27;20500;-51
2021/10/28 06:51:49;;;;;;;28.92;11.85;;;;;;;9.66;70.19;99102.22;5132843;27;20031;-52
2021/10/28 06:56:56;;;;;;;23.80;9.43;;;;;;;10.18;69.02;99103.78;5133035;27;20492;-52
2021/10/28 07:02:31;;;;;;;13.80;8.95;;;;;;;10.65;67.14;99106.84;5056574;28;20537;-52
2021/10/28 07:05:01;;;;;;;31.65;9.50;;;;;;;10.87;66.19;99108.44;5112194;28;20035;-52
2021/10/28 07:07:32;;;;;;;31.98;9.90;;;;;;;11.11;65.66;99101.09;5112314;28;20051;-51
2021/10/28 07:15:20;;;;;;;12.63;9.38;;;;;;;12.14;61.96;99096.66;5065703;28;20489;-51
2021/10/28 07:23:30;;;;;;;15.02;8.80;;;;;;;12.59;60.24;99106.59;5112101;28;20096;-52
2021/10/28 07:26:14;;;;;;;14.15;8.85;;;;;;;12.30;61.81;99107.81;5111966;28;20031;-52
2021/10/28 07:29:04;;;;;;;14.40;8.70;;;;;;;12.49;61.05;99111.47;5116034;28;20020;-52
2021/10/28 08:29:39;;;;;;;26.27;9.15;;;;;;;18.45;45.57;99098.09;5135820;27;20507;-52
2021/10/28 08:32:07;;;;;;;27.83;8.60;;;;;;;19.02;45.10;99092.59;5135271;27;20138;-52
2021/10/28 08:34:36;;;;;;;15.05;7.60;;;;;;;19.41;44.25;99097.09;5116820;27;20023;-52
2021/10/28 08:37:07;;;;;;;19.00;8.38;;;;;;;20.33;42.53;99079.41;5135519;27;20015;-52
2021/10/28 08:39:37;;;;;;;16.65;7.03;;;;;;;20.59;41.45;99080.41;5134016;27;20488;-50
2021/10/28 08:42:09;;;;;;;9.25;6.60;;;;;;;21.09;40.03;99081.00;5135256;27;20026;-50
2021/10/28 08:44:40;;;;;;;14.52;6.07;;;;;;;21.57;38.59;99072.91;5135254;27;20027;-50
2021/10/28 08:47:10;;;;;;;14.93;7.72;;;;;;;21.77;39.02;99074.81;5135060;27;20027;-50
2021/10/28 08:55:18;;;;;;;87.22;70.13;;;;;;;22.51;36.90;99077.03;5135104;27;20076;-50
2021/10/28 09:26:22;;;;;;;19.00;9.45;;;;;;;18.70;49.86;99071.91;5134635;27;20123;-49
2021/10/28 09:29:02;;;;;;;23.83;7.80;;;;;;;18.53;47.88;99063.16;5134605;27;20027;-50
2021/10/28 09:31:32;;;;;;;13.65;5.93;;;;;;;18.85;45.25;99062.56;5117118;27;20099;-50
2021/10/28 09:34:24;;;;;;;10.20;5.32;;;;;;;18.50;44.51;99053.00;5134070;27;20019;-50
2021/10/28 09:43:35;;;;;;;17.08;6.25;;;;;;;18.54;45.51;99060.25;5134087;27;20035;-50
2021/10/28 09:45:54;;;;;;;8.68;4.63;;;;;;;21.49;38.62;99034.16;5134313;27;20080;-49
2021/10/28 09:48:35;;;;;;;13.38;4.65;;;;;;;21.47;38.80;99036.28;5133893;27;20043;-50
2021/10/28 09:51:04;;;;;;;13.25;5.25;;;;;;;21.62;38.45;99033.66;5133416;27;20023;-49
2021/10/28 09:53:56;;;;;;;8.55;4.97;;;;;;;21.97;37.23;99028.63;5116017;27;20030;-50
2021/10/28 09:59:32;;;;;;;7.40;3.97;;;;;;;22.44;36.81;99030.25;5133793;27;20445;-50
2021/10/28 10:02:14;;;;;;;9.10;3.90;;;;;;;22.96;36.81;99025.56;5133413;27;20502;-50
2021/10/28 10:04:42;;;;;;;11.00;4.90;;;;;;;23.68;34.55;99013.44;5133633;27;20023;-50
2021/10/28 10:07:12;;;;;;;11.40;4.88;;;;;;;23.98;34.79;99008.94;5115463;27;20023;-49
2021/10/28 10:09:38;;;;;;;14.13;4.47;;;;;;;24.49;33.90;99011.19;5133584;27;20049;-50
2021/10/28 10:12:06;;;;;;;8.75;4.78;;;;;;;24.89;32.71;99009.16;5133469;27;20110;-51
2021/10/28 10:14:37;;;;;;;9.98;4.07;;;;;;;24.93;32.54;99014.72;5114865;27;20034;-49
2021/10/28 10:17:04;;;;;;;5.15;3.72;;;;;;;24.94;32.29;99019.03;5114975;27;20484;-50
2021/10/28 10:19:38;;;;;;;10.32;6.10;;;;;;;25.06;32.10;99011.38;5133367;27;20023;-50
2021/10/28 11:28:24;;;;;;;8.90;2.78;;;;;;;27.20;26.44;98911.09;5132905;28;20062;-49
2021/10/28 12:01:46;;;;;;;7.22;2.47;;;;;;;24.85;28.40;98875.78;5132608;28;20038;-51
2021/10/28 12:16:03;;;;;;;6.05;2.35;;;;;;;24.69;28.68;98849.16;5135913;27;20399;-51
2021/10/28 12:23:44;;;;;;;6.30;3.25;;;;;;;24.97;28.45;98840.44;5135703;27;20511;-51
2021/10/28 12:45:48;;;;;;;2.83;1.90;;;;;;;25.91;27.01;98801.81;5135513;27;20038;-50
2021/10/28 12:50:56;;;;;;;4.63;3.28;;;;;;;25.45;27.55;98791.88;5135074;27;20551;-50
2021/10/28 12:56:37;;;;;;;5.88;3.15;;;;;;;25.21;28.04;98790.16;5117948;27;20531;-50
2021/10/28 13:02:21;;;;;;;6.28;2.80;;;;;;;24.44;28.59;98791.22;5134967;27;20034;-51
2021/10/28 13:50:47;;;;;;;11.50;4.13;;;;;;;22.26;32.94;98770.38;5134011;27;20030;-51
2021/10/28 15:28:04;;;;;;;8.70;3.33;;;;;;;18.30;40.86;98724.03;5132625;28;20037;-51
2021/10/28 15:30:41;;;;;;;6.10;3.30;;;;;;;18.34;40.80;98722.50;5132595;28;20054;-51
2021/10/28 15:35:44;;;;;;;8.32;3.90;;;;;;;18.34;41.24;98715.31;5115093;28;20031;-50
2021/10/28 15:40:55;;;;;;;6.13;3.40;;;;;;;18.31;41.32;98721.16;5132402;28;20035;-50
2021/10/28 15:47:09;;;;;;;5.85;3.33;;;;;;;18.33;41.32;98719.03;5114020;28;20031;-50
2021/10/28 15:54:40;;;;;;;5.75;3.10;;;;;;;18.08;42.34;98713.44;5136440;27;20226;-50
2021/10/28 16:24:09;;;;;;;11.07;5.97;;;;;;;17.45;46.02;98704.94;5135743;27;20034;-50
2021/10/28 16:26:36;;;;;;;14.77;5.25;;;;;;;17.26;47.25;98710.50;5135571;27;20098;-50
2021/10/28 16:29:06;;;;;;;11.18;5.88;;;;;;;16.97;48.43;98712.44;5135436;27;20023;-51
2021/10/28 16:31:34;;;;;;;6.60;5.00;;;;;;;16.66;48.73;98703.97;5117042;27;20027;-51
2021/10/28 16:34:00;;;;;;;13.38;6.60;;;;;;;16.51;49.49;98706.34;5135401;27;20046;-51
2021/10/28 16:36:26;;;;;;;9.65;4.28;;;;;;;16.44;49.67;98703.88;5117124;27;20015;-50
2021/10/28 16:38:52;;;;;;;6.22;4.45;;;;;;;16.34;50.03;98703.69;5116942;27;20145;-50
2021/10/28 16:41:19;;;;;;;12.50;5.88;;;;;;;16.21;50.62;98701.31;5135299;27;20034;-50
2021/10/28 16:43:45;;;;;;;10.02;5.10;;;;;;;16.06;50.98;98705.28;5135230;27;20027;-50
2021/10/28 16:46:11;;;;;;;10.40;4.63;;;;;;;15.86;51.52;98699.59;5135398;27;20039;-51
2021/10/28 16:48:38;;;;;;;11.98;6.30;;;;;;;15.78;52.26;98703.41;5135216;27;20041;-52
2021/10/28 16:51:06;;;;;;;8.07;4.72;;;;;;;15.68;52.31;98703.97;5116971;27;20033;-52
2021/10/28 16:53:33;;;;;;;9.07;4.65;;;;;;;15.61;52.83;98703.28;5135138;27;20514;-52
2021/10/28 16:56:00;;;;;;;8.63;5.22;;;;;;;15.59;52.85;98708.00;5134909;27;20019;-52
2021/10/28 16:58:27;;;;;;;10.43;5.60;;;;;;;15.43;53.38;98701.56;5134380;27;20507;-51
2021/10/28 17:00:54;;;;;;;12.18;6.15;;;;;;;15.24;54.06;98703.53;5134226;27;20519;-52
2021/10/28 17:03:20;;;;;;;7.88;5.00;;;;;;;15.08;54.88;98705.03;5134515;27;20050;-52
2021/10/28 17:05:47;;;;;;;10.20;5.30;;;;;;;14.90;55.33;98705.13;5134796;27;20015;-52
2021/10/28 17:08:13;;;;;;;11.32;5.85;;;;;;;14.81;56.33;98701.19;5134705;27;20441;-53
2021/10/28 17:10:39;;;;;;;11.00;4.50;;;;;;;14.76;56.79;98701.88;5134640;27;20484;-52
2021/10/28 17:13:05;;;;;;;8.55;4.00;;;;;;;14.75;56.93;98702.94;5134665;27;20078;-52
2021/10/28 17:15:31;;;;;;;9.25;5.97;;;;;;;14.67;56.64;98711.16;5134560;27;20019;-53
2021/10/28 17:17:57;;;;;;;12.43;6.18;;;;;;;14.56;56.63;98721.47;5134902;27;20027;-53
2021/10/28 17:20:24;;;;;;;12.02;6.20;;;;;;;14.48;57.14;98711.19;5134610;27;20019;-52
2021/10/28 17:22:50;;;;;;;9.48;4.97;;;;;;;14.45;57.47;98713.50;5134653;27;20062;-53
2021/10/28 17:25:20;;;;;;;10.18;5.45;;;;;;;14.42;57.62;98717.38;5134355;27;20160;-52
2021/10/28 17:27:49;;;;;;;16.52;6.68;;;;;;;14.43;58.20;98715.53;5134334;27;20127;-52
2021/10/28 17:30:16;;;;;;;12.55;6.80;;;;;;;14.43;57.91;98710.25;5115918;27;20030;-53
2021/10/28 17:32:44;;;;;;;14.13;6.90;;;;;;;14.47;58.09;98708.78;5134217;27;20067;-52
2021/10/28 17:35:11;;;;;;;14.23;6.72;;;;;;;14.44;58.09;98715.31;5134185;27;20019;-52
2021/10/28 17:37:37;;;;;;;15.35;6.95;;;;;;;14.34;58.36;98712.41;5115758;27;20027;-53
2021/10/28 17:40:04;;;;;;;11.73;6.25;;;;;;;14.30;58.15;98716.53;5134037;27;20108;-53
2021/10/28 17:42:31;;;;;;;14.70;7.65;;;;;;;14.27;58.34;98711.69;5134342;27;20023;-53
2021/10/28 17:44:57;;;;;;;17.50;7.13;;;;;;;14.25;58.23;98716.41;5134085;27;20122;-52
2021/10/28 17:47:24;;;;;;;16.88;7.10;;;;;;;14.26;58.63;98718.78;5134050;27;20102;-53
2021/10/28 17:49:52;;;;;;;12.45;6.50;;;;;;;14.37;58.80;98714.59;5133974;27;20015;-53
2021/10/28 17:52:18;;;;;;;14.52;7.00;;;;;;;14.55;58.69;98724.31;5133777;27;20027;-52
2021/10/28 17:54:46;;;;;;;17.23;8.02;;;;;;;14.50;58.33;98719.69;5133803;27;20019;-52
2021/10/28 17:57:13;;;;;;;13.60;7.15;;;;;;;14.45;58.03;98719.56;5133877;27;20019;-52
2021/10/28 17:59:39;;;;;;;13.35;7.22;;;;;;;14.33;58.55;98716.88;5115641;27;20456;-53
2021/10/28 18:02:06;;;;;;;15.18;7.35;;;;;;;14.10;59.62;98720.22;5133544;27;20031;-52
2021/10/28 18:04:32;;;;;;;17.55;8.55;;;;;;;13.95;59.82;98717.97;5133719;27;20027;-52
2021/10/28 18:06:58;;;;;;;14.40;7.50;;;;;;;13.94;59.83;98712.91;5115241;27;20028;-53
2021/10/28 18:09:26;;;;;;;17.13;7.35;;;;;;;14.02;59.80;98717.88;5133507;27;20034;-52
2021/10/28 18:11:53;;;;;;;13.30;7.95;;;;;;;14.07;59.51;98718.03;5115077;27;20556;-52
2021/10/28 18:14:21;;;;;;;15.88;8.50;;;;;;;14.01;59.55;98716.28;5133582;27;20023;-52
2021/10/28 18:16:47;;;;;;;17.55;7.80;;;;;;;13.91;60.28;98721.28;5133438;27;20019;-51
2021/10/28 18:19:13;;;;;;;11.70;8.13;;;;;;;13.79;60.47;98718.56;5133420;27;20027;-52
2021/10/28 18:21:42;;;;;;;17.42;8.65;;;;;;;13.71;60.50;98719.66;5114931;27;20023;-53
2021/10/28 18:24:09;;;;;;;12.15;7.03;;;;;;;13.61;60.91;98711.47;5133314;27;20017;-52
2021/10/28 18:26:35;;;;;;;14.32;7.60;;;;;;;13.49;61.93;98710.56;5133264;27;20019;-53
2021/10/28 18:29:02;;;;;;;19.50;9.02;;;;;;;13.31;62.29;98706.06;5114753;27;20031;-53
2021/10/28 18:31:28;;;;;;;20.95;9.10;;;;;;;13.29;62.64;98706.28;5133226;27;20085;-52
2021/10/28 18:33:56;;;;;;;16.35;9.30;;;;;;;13.37;62.51;98713.13;5133088;27;20373;-52
2021/10/28 18:36:24;;;;;;;13.25;7.80;;;;;;;13.40;62.27;98707.41;5133302;27;20487;-53
2021/10/28 18:38:50;;;;;;;17.35;7.68;;;;;;;13.35;62.43;98700.16;5115058;27;20051;-52
2021/10/28 18:41:18;;;;;;;12.90;8.15;;;;;;;13.22;62.71;98702.06;5133084;27;20095;-52
2021/10/28 18:43:46;;;;;;;13.48;7.65;;;;;;;13.11;63.75;98696.47;5114817;27;20140;-53
2021/10/28 18:46:14;;;;;;;15.77;8.27;;;;;;;13.05;63.74;98694.72;5097786;28;20027;-53
2021/10/28 18:48:40;;;;;;;11.57;7.80;;;;;;;12.95;63.96;98691.75;5133348;27;20027;-53
2021/10/28 18:51:06;;;;;;;20.33;8.05;;;;;;;12.90;64.04;98697.69;5132847;27;20029;-52
2021/10/28 18:53:38;;;;;;;16.83;9.00;;;;;;;12.77;64.34;98689.88;5114615;27;20015;-53
2021/10/28 18:56:04;;;;;;;14.48;8.43;;;;;;;12.69;64.68;98684.88;5132752;27;20110;-53
2021/10/28 18:58:30;;;;;;;15.15;8.90;;;;;;;12.62;64.58;98678.88;5132763;27;20489;-52
2021/10/28 19:00:56;;;;;;;15.10;8.88;;;;;;;12.57;65.01;98675.03;5132727;28;20150;-53
2021/10/28 19:03:23;;;;;;;17.30;10.25;;;;;;;12.54;65.26;98686.00;5132588;28;20530;-52
2021/10/28 19:05:54;;;;;;;13.90;10.05;;;;;;;12.58;65.37;98674.00;5132783;28;20098;-52
2021/10/28 19:08:21;;;;;;;15.52;8.18;;;;;;;12.63;64.87;98672.56;5132748;28;20031;-52
2021/10/28 19:10:48;;;;;;;18.30;10.35;;;;;;;12.56;64.77;98668.16;5097289;28;20023;-52
2021/10/28 19:13:14;;;;;;;14.20;7.88;;;;;;;12.50;64.92;98661.13;5131350;28;20506;-53
2021/10/28 19:15:40;;;;;;;15.38;9.25;;;;;;;12.43;65.43;98656.91;5132569;28;20023;-53
2021/10/28 19:18:06;;;;;;;17.25;9.60;;;;;;;12.39;65.76;98657.34;5132663;28;20027;-52
2021/10/28 19:20:33;;;;;;;16.33;9.77;;;;;;;12.36;65.86;98655.13;5132523;28;20435;-53
2021/10/28 19:22:59;;;;;;;22.92;10.15;;;;;;;12.29;66.21;98656.97;5134311;27;20030;-53
2021/10/28 19:25:26;;;;;;;19.13;9.82;;;;;;;12.37;66.41;98648.88;5136835;27;20019;-53
2021/10/28 19:27:55;;;;;;;20.35;8.65;;;;;;;12.35;66.26;98652.69;5136648;27;20027;-52
2021/10/28 19:30:38;;;;;;;258.85;135.30;;;;;;;12.35;66.35;98650.06;5136699;27;20046;-53
2021/10/28 19:33:31;;;;;;;44.92;21.20;;;;;;;12.44;66.08;98643.53;5136734;27;20399;-53
2021/10/28 19:36:02;;;;;;;15.70;10.45;;;;;;;12.48;65.62;98649.19;5136432;27;20055;-52
2021/10/28 19:46:33;;;;;;;12.38;7.50;;;;;;;12.47;65.26;98629.94;5136463;27;20031;-52
2021/10/28 19:48:59;;;;;;;10.68;7.20;;;;;;;12.41;65.32;98635.25;5136399;27;20365;-52
2021/10/28 19:51:26;;;;;;;16.00;9.35;;;;;;;12.25;65.77;98628.69;5136271;27;20022;-53
2021/10/28 19:53:53;;;;;;;15.93;8.00;;;;;;;12.16;65.48;98631.56;5136239;27;20508;-53
2021/10/28 19:56:20;;;;;;;19.52;9.35;;;;;;;12.08;65.53;98634.44;5100799;27;20552;-52
2021/10/28 19:58:51;;;;;;;12.73;8.40;;;;;;;12.02;66.40;98630.03;5136054;27;20026;-53
2021/10/28 20:20:26;;;;;;;10.65;8.02;;;;;;;11.69;67.05;98630.16;5136052;27;20030;-52
2021/10/28 20:22:52;;;;;;;15.75;9.32;;;;;;;11.62;67.20;98639.91;5135783;27;20031;-52
2021/10/28 20:25:21;;;;;;;20.38;9.65;;;;;;;11.54;67.02;98644.38;5135617;27;20400;-53